sensor_id;sensor_type;location;lat;lon;timestamp;temperature;humidity
60868;DHT22;46702;48.370;10.794;2024-01-10T00:00:06;-6.60;99.90
60868;DHT22;46702;48.370;10.794;2024-01-10T00:02:32;-6.50;99.90
60868;DHT22;46702;48.370;10.794;2024-01-10T00:04:58;-6.60;99.90
60868;DHT22;46702;48.370;10.794;2024-01-10T00:07:23;-6.60;99.90
60868;DHT22;46702;48.370;10.794;2024-01-10T00:09:49;-6.60;99.90
60868;DHT22;46702;48.370;10.794;2024-01-10T00:12:15;-6.60;99.90
60868;DHT22;46702;48.370;10.794;2024-01-10T00:14:41;-6.60;99.90
60868;DHT22;46702;48.370;10.794;2024-01-10T00:17:07;-6.50;99.90
60868;DHT22;46702;48.370;10.794;2024-01-10T00:19:35;-6.60;99.90
60868;DHT22;46702;48.370;10.794;2024-01-10T00:22:01;-6.60;99.90
60868;DHT22;46702;48.370;10.794;2024-01-10T00:24:27;-6.60;99.90
60868;DHT22;46702;48.370;10.794;2024-01-10T00:26:53;-6.60;99.90
60868;DHT22;46702;48.370;10.794;2024-01-10T00:29:18;-6.60;99.90
60868;DHT22;46702;48.370;10.794;2024-01-10T00:31:45;-6.60;99.90
60868;DHT22;46702;48.370;10.794;2024-01-10T00:34:16;-6.60;99.90
60868;DHT22;46702;48.370;10.794;2024-01-10T00:36:42;-6.60;99.90
60868;DHT22;46702;48.370;10.794;2024-01-10T00:39:08;-6.70;99.90
60868;DHT22;46702;48.370;10.794;2024-01-10T00:41:33;-6.60;99.90
60868;DHT22;46702;48.370;10.794;2024-01-10T00:43:59;-6.60;99.90
60868;DHT22;46702;48.370;10.794;2024-01-10T00:46:25;-6.60;99.90
60868;DHT22;46702;48.370;10.794;2024-01-10T00:48:50;-6.50;99.90
60868;DHT22;46702;48.370;10.794;2024-01-10T00:51:16;-6.70;99.90
60868;DHT22;46702;48.370;10.794;2024-01-10T00:53:41;-6.70;99.90
60868;DHT22;46702;48.370;10.794;2024-01-10T00:56:07;-6.70;99.90
60868;DHT22;46702;48.370;10.794;2024-01-10T00:58:33;-6.60;99.90
60868;DHT22;46702;48.370;10.794;2024-01-10T01:00:59;-6.70;99.90
60868;DHT22;46702;48.370;10.794;2024-01-10T01:03:27;-6.60;99.90
60868;DHT22;46702;48.370;10.794;2024-01-10T01:05:55;-6.60;99.90
60868;DHT22;46702;48.370;10.794;2024-01-10T01:08:21;-6.60;99.90
60868;DHT22;46702;48.370;10.794;2024-01-10T01:10:47;-6.50;99.90
60868;DHT22;46702;48.370;10.794;2024-01-10T01:13:12;-6.50;99.90
60868;DHT22;46702;48.370;10.794;2024-01-10T01:15:38;-6.50;99.90
60868;DHT22;46702;48.370;10.794;2024-01-10T01:18:04;-6.50;99.90
60868;DHT22;46702;48.370;10.794;2024-01-10T01:20:29;-6.50;99.90
60868;DHT22;46702;48.370;10.794;2024-01-10T01:22:55;-6.50;99.90
60868;DHT22;46702;48.370;10.794;2024-01-10T01:25:21;-6.50;99.90
60868;DHT22;46702;48.370;10.794;2024-01-10T01:27:46;-6.50;99.90
60868;DHT22;46702;48.370;10.794;2024-01-10T01:30:12;-6.50;99.90
60868;DHT22;46702;48.370;10.794;2024-01-10T01:32:38;-6.60;99.90
60868;DHT22;46702;48.370;10.794;2024-01-10T01:35:04;-6.60;99.90
60868;DHT22;46702;48.370;10.794;2024-01-10T01:37:30;-6.50;99.90
60868;DHT22;46702;48.370;10.794;2024-01-10T01:39:56;-6.60;99.90
60868;DHT22;46702;48.370;10.794;2024-01-10T01:42:22;-6.60;99.90
60868;DHT22;46702;48.370;10.794;2024-01-10T01:44:47;-6.60;99.90
60868;DHT22;46702;48.370;10.794;2024-01-10T01:47:13;-6.50;99.90
60868;DHT22;46702;48.370;10.794;2024-01-10T01:49:40;-6.50;99.90
60868;DHT22;46702;48.370;10.794;2024-01-10T01:52:10;-6.50;99.90
60868;DHT22;46702;48.370;10.794;2024-01-10T01:54:36;-6.40;99.90
60868;DHT22;46702;48.370;10.794;2024-01-10T01:57:02;-6.50;99.90
60868;DHT22;46702;48.370;10.794;2024-01-10T01:59:28;-6.50;99.90
60868;DHT22;46702;48.370;10.794;2024-01-10T02:01:55;-6.60;99.90
60868;DHT22;46702;48.370;10.794;2024-01-10T02:04:22;-6.50;99.90
60868;DHT22;46702;48.370;10.794;2024-01-10T02:06:48;-6.50;99.90
60868;DHT22;46702;48.370;10.794;2024-01-10T02:09:14;-6.60;99.90
60868;DHT22;46702;48.370;10.794;2024-01-10T02:11:40;-6.60;99.90
60868;DHT22;46702;48.370;10.794;2024-01-10T02:14:06;-6.50;99.90
60868;DHT22;46702;48.370;10.794;2024-01-10T02:16:32;-6.50;99.90
60868;DHT22;46702;48.370;10.794;2024-01-10T02:18:58;-6.50;99.90
60868;DHT22;46702;48.370;10.794;2024-01-10T02:21:24;-6.50;99.90
60868;DHT22;46702;48.370;10.794;2024-01-10T02:23:49;-6.50;99.90
60868;DHT22;46702;48.370;10.794;2024-01-10T02:26:15;-6.60;99.90
60868;DHT22;46702;48.370;10.794;2024-01-10T02:28:41;-6.60;99.90
60868;DHT22;46702;48.370;10.794;2024-01-10T02:31:07;-6.50;99.90
60868;DHT22;46702;48.370;10.794;2024-01-10T02:33:32;-6.60;99.90
60868;DHT22;46702;48.370;10.794;2024-01-10T02:35:58;-6.50;99.90
60868;DHT22;46702;48.370;10.794;2024-01-10T02:38:24;-6.50;99.90
60868;DHT22;46702;48.370;10.794;2024-01-10T02:40:50;-6.50;99.90
60868;DHT22;46702;48.370;10.794;2024-01-10T02:43:15;-6.60;99.90
60868;DHT22;46702;48.370;10.794;2024-01-10T02:45:41;-6.50;99.90
60868;DHT22;46702;48.370;10.794;2024-01-10T02:48:07;-6.50;99.90
60868;DHT22;46702;48.370;10.794;2024-01-10T02:50:33;-6.40;99.90
60868;DHT22;46702;48.370;10.794;2024-01-10T02:52:58;-6.40;99.90
60868;DHT22;46702;48.370;10.794;2024-01-10T02:55:24;-6.40;99.90
60868;DHT22;46702;48.370;10.794;2024-01-10T02:57:49;-6.40;99.90
60868;DHT22;46702;48.370;10.794;2024-01-10T03:00:15;-6.30;99.90
60868;DHT22;46702;48.370;10.794;2024-01-10T03:02:41;-6.30;99.90
60868;DHT22;46702;48.370;10.794;2024-01-10T03:05:07;-6.30;99.90
60868;DHT22;46702;48.370;10.794;2024-01-10T03:07:33;-6.30;99.90
60868;DHT22;46702;48.370;10.794;2024-01-10T03:09:58;-6.30;99.90
60868;DHT22;46702;48.370;10.794;2024-01-10T03:12:24;-6.30;99.90
60868;DHT22;46702;48.370;10.794;2024-01-10T03:14:49;-6.30;99.90
60868;DHT22;46702;48.370;10.794;2024-01-10T03:17:15;-6.30;99.90
60868;DHT22;46702;48.370;10.794;2024-01-10T03:19:41;-6.30;99.90
60868;DHT22;46702;48.370;10.794;2024-01-10T03:22:10;-6.20;99.90
60868;DHT22;46702;48.370;10.794;2024-01-10T03:24:39;-6.20;99.90
60868;DHT22;46702;48.370;10.794;2024-01-10T03:27:04;-6.20;99.90
60868;DHT22;46702;48.370;10.794;2024-01-10T03:29:30;-6.20;99.90
60868;DHT22;46702;48.370;10.794;2024-01-10T03:31:56;-6.20;99.90
60868;DHT22;46702;48.370;10.794;2024-01-10T03:34:21;-6.20;99.90
60868;DHT22;46702;48.370;10.794;2024-01-10T03:36:47;-6.20;99.90
60868;DHT22;46702;48.370;10.794;2024-01-10T03:39:13;-6.20;99.90
60868;DHT22;46702;48.370;10.794;2024-01-10T03:41:38;-6.20;99.90
60868;DHT22;46702;48.370;10.794;2024-01-10T03:44:04;-6.20;99.90
60868;DHT22;46702;48.370;10.794;2024-01-10T03:46:29;-6.30;99.90
60868;DHT22;46702;48.370;10.794;2024-01-10T03:48:55;-6.20;99.90
60868;DHT22;46702;48.370;10.794;2024-01-10T03:51:21;-6.20;99.90
60868;DHT22;46702;48.370;10.794;2024-01-10T03:53:47;-6.10;99.90
60868;DHT22;46702;48.370;10.794;2024-01-10T03:56:14;-6.20;99.90
60868;DHT22;46702;48.370;10.794;2024-01-10T03:58:40;-6.20;99.90
60868;DHT22;46702;48.370;10.794;2024-01-10T04:01:07;-6.10;99.90
60868;DHT22;46702;48.370;10.794;2024-01-10T04:03:33;-6.10;99.90
60868;DHT22;46702;48.370;10.794;2024-01-10T04:05:59;-6.10;99.90
60868;DHT22;46702;48.370;10.794;2024-01-10T04:08:24;-6.10;99.90
60868;DHT22;46702;48.370;10.794;2024-01-10T04:10:50;-6.10;99.90
60868;DHT22;46702;48.370;10.794;2024-01-10T04:13:15;-6.10;99.90
60868;DHT22;46702;48.370;10.794;2024-01-10T04:15:41;-6.00;99.90
60868;DHT22;46702;48.370;10.794;2024-01-10T04:18:10;-6.10;99.90
60868;DHT22;46702;48.370;10.794;2024-01-10T04:20:35;-6.20;99.90
60868;DHT22;46702;48.370;10.794;2024-01-10T04:23:02;-6.20;99.90
60868;DHT22;46702;48.370;10.794;2024-01-10T04:25:28;-6.20;99.90
60868;DHT22;46702;48.370;10.794;2024-01-10T04:27:53;-6.10;99.90
60868;DHT22;46702;48.370;10.794;2024-01-10T04:30:20;-6.10;99.90
60868;DHT22;46702;48.370;10.794;2024-01-10T04:32:46;-6.20;99.90
60868;DHT22;46702;48.370;10.794;2024-01-10T04:35:12;-6.10;99.90
60868;DHT22;46702;48.370;10.794;2024-01-10T04:37:37;-6.00;99.90
60868;DHT22;46702;48.370;10.794;2024-01-10T04:40:03;-6.10;99.90
60868;DHT22;46702;48.370;10.794;2024-01-10T04:42:30;-6.10;99.90
60868;DHT22;46702;48.370;10.794;2024-01-10T04:44:56;-6.00;99.90
60868;DHT22;46702;48.370;10.794;2024-01-10T04:47:21;-6.00;99.90
60868;DHT22;46702;48.370;10.794;2024-01-10T04:49:47;-5.90;99.90
60868;DHT22;46702;48.370;10.794;2024-01-10T04:52:13;-5.90;99.90
60868;DHT22;46702;48.370;10.794;2024-01-10T04:54:38;-5.90;99.90
60868;DHT22;46702;48.370;10.794;2024-01-10T04:57:04;-5.80;99.90
60868;DHT22;46702;48.370;10.794;2024-01-10T04:59:30;-5.80;99.90
60868;DHT22;46702;48.370;10.794;2024-01-10T05:01:55;-5.80;99.90
60868;DHT22;46702;48.370;10.794;2024-01-10T05:04:21;-5.70;99.90
60868;DHT22;46702;48.370;10.794;2024-01-10T05:06:47;-5.70;99.90
60868;DHT22;46702;48.370;10.794;2024-01-10T05:09:12;-5.70;99.90
60868;DHT22;46702;48.370;10.794;2024-01-10T05:11:39;-5.60;99.90
60868;DHT22;46702;48.370;10.794;2024-01-10T05:14:05;-5.60;99.90
60868;DHT22;46702;48.370;10.794;2024-01-10T05:16:30;-5.60;99.90
60868;DHT22;46702;48.370;10.794;2024-01-10T05:18:57;-5.60;99.90
60868;DHT22;46702;48.370;10.794;2024-01-10T05:21:25;-5.60;99.90
60868;DHT22;46702;48.370;10.794;2024-01-10T05:23:51;-5.60;99.90
60868;DHT22;46702;48.370;10.794;2024-01-10T05:26:17;-5.60;99.90
60868;DHT22;46702;48.370;10.794;2024-01-10T05:28:43;-5.50;99.90
60868;DHT22;46702;48.370;10.794;2024-01-10T05:31:08;-5.50;99.90
60868;DHT22;46702;48.370;10.794;2024-01-10T05:33:34;-5.50;99.90
60868;DHT22;46702;48.370;10.794;2024-01-10T05:35:59;-5.50;99.90
60868;DHT22;46702;48.370;10.794;2024-01-10T05:38:25;-5.50;99.90
60868;DHT22;46702;48.370;10.794;2024-01-10T05:40:51;-5.50;99.90
60868;DHT22;46702;48.370;10.794;2024-01-10T05:43:17;-5.50;99.90
60868;DHT22;46702;48.370;10.794;2024-01-10T05:45:42;-5.50;99.90
60868;DHT22;46702;48.370;10.794;2024-01-10T05:48:08;-5.50;99.90
60868;DHT22;46702;48.370;10.794;2024-01-10T05:50:34;-5.60;99.90
60868;DHT22;46702;48.370;10.794;2024-01-10T05:52:59;-5.60;99.90
60868;DHT22;46702;48.370;10.794;2024-01-10T05:55:25;-5.60;99.90
60868;DHT22;46702;48.370;10.794;2024-01-10T05:57:51;-5.60;99.90
60868;DHT22;46702;48.370;10.794;2024-01-10T06:00:17;-5.60;99.90
60868;DHT22;46702;48.370;10.794;2024-01-10T06:02:43;-5.60;99.90
60868;DHT22;46702;48.370;10.794;2024-01-10T06:05:10;-5.70;99.90
60868;DHT22;46702;48.370;10.794;2024-01-10T06:07:37;-5.60;99.90
60868;DHT22;46702;48.370;10.794;2024-01-10T06:10:03;-5.60;99.90
60868;DHT22;46702;48.370;10.794;2024-01-10T06:12:30;-5.60;99.90
60868;DHT22;46702;48.370;10.794;2024-01-10T06:14:55;-5.50;99.90
60868;DHT22;46702;48.370;10.794;2024-01-10T06:17:21;-5.50;99.90
60868;DHT22;46702;48.370;10.794;2024-01-10T06:19:47;-5.50;99.90
60868;DHT22;46702;48.370;10.794;2024-01-10T06:22:13;-5.40;99.90
60868;DHT22;46702;48.370;10.794;2024-01-10T06:24:39;-5.40;99.90
60868;DHT22;46702;48.370;10.794;2024-01-10T06:27:06;-5.40;99.90
60868;DHT22;46702;48.370;10.794;2024-01-10T06:29:32;-5.40;99.90
60868;DHT22;46702;48.370;10.794;2024-01-10T06:31:59;-5.40;99.90
60868;DHT22;46702;48.370;10.794;2024-01-10T06:34:26;-5.30;99.90
60868;DHT22;46702;48.370;10.794;2024-01-10T06:36:53;-5.30;99.90
60868;DHT22;46702;48.370;10.794;2024-01-10T06:39:18;-5.30;99.90
60868;DHT22;46702;48.370;10.794;2024-01-10T06:41:47;-5.30;99.90
60868;DHT22;46702;48.370;10.794;2024-01-10T06:44:13;-5.40;99.90
60868;DHT22;46702;48.370;10.794;2024-01-10T06:46:39;-5.30;99.90
60868;DHT22;46702;48.370;10.794;2024-01-10T06:49:04;-5.40;99.90
60868;DHT22;46702;48.370;10.794;2024-01-10T06:51:31;-5.30;99.90
60868;DHT22;46702;48.370;10.794;2024-01-10T06:53:56;-5.30;99.90
60868;DHT22;46702;48.370;10.794;2024-01-10T06:56:29;-5.30;99.90
60868;DHT22;46702;48.370;10.794;2024-01-10T06:58:56;-5.30;99.90
60868;DHT22;46702;48.370;10.794;2024-01-10T07:01:21;-5.30;99.90
60868;DHT22;46702;48.370;10.794;2024-01-10T07:03:48;-5.30;99.90
60868;DHT22;46702;48.370;10.794;2024-01-10T07:06:13;-5.30;99.90
60868;DHT22;46702;48.370;10.794;2024-01-10T07:08:43;-5.40;99.90
60868;DHT22;46702;48.370;10.794;2024-01-10T07:11:10;-5.40;99.90
60868;DHT22;46702;48.370;10.794;2024-01-10T07:13:37;-5.40;99.90
60868;DHT22;46702;48.370;10.794;2024-01-10T07:16:02;-5.40;99.90
60868;DHT22;46702;48.370;10.794;2024-01-10T07:18:29;-5.40;99.90
60868;DHT22;46702;48.370;10.794;2024-01-10T07:20:54;-5.40;99.90
60868;DHT22;46702;48.370;10.794;2024-01-10T07:23:20;-5.50;99.90
60868;DHT22;46702;48.370;10.794;2024-01-10T07:25:46;-5.50;99.90
60868;DHT22;46702;48.370;10.794;2024-01-10T07:28:12;-5.60;99.90
60868;DHT22;46702;48.370;10.794;2024-01-10T07:30:37;-5.60;99.90
60868;DHT22;46702;48.370;10.794;2024-01-10T07:33:03;-5.60;99.90
60868;DHT22;46702;48.370;10.794;2024-01-10T07:35:29;-5.60;99.90
60868;DHT22;46702;48.370;10.794;2024-01-10T07:37:56;-5.60;99.90
60868;DHT22;46702;48.370;10.794;2024-01-10T07:40:21;-5.60;99.90
60868;DHT22;46702;48.370;10.794;2024-01-10T07:42:50;-5.50;99.90
60868;DHT22;46702;48.370;10.794;2024-01-10T07:45:16;-5.50;99.90
60868;DHT22;46702;48.370;10.794;2024-01-10T07:47:42;-5.50;99.90
60868;DHT22;46702;48.370;10.794;2024-01-10T07:50:08;-5.60;99.90
60868;DHT22;46702;48.370;10.794;2024-01-10T07:52:34;-5.60;99.90
60868;DHT22;46702;48.370;10.794;2024-01-10T07:55:01;-5.70;99.90
60868;DHT22;46702;48.370;10.794;2024-01-10T07:57:27;-5.60;99.90
60868;DHT22;46702;48.370;10.794;2024-01-10T07:59:56;-5.60;99.90
60868;DHT22;46702;48.370;10.794;2024-01-10T08:02:22;-5.60;99.90
60868;DHT22;46702;48.370;10.794;2024-01-10T08:04:47;-5.60;99.90
60868;DHT22;46702;48.370;10.794;2024-01-10T08:07:13;-5.60;99.90
60868;DHT22;46702;48.370;10.794;2024-01-10T08:09:39;-5.50;99.90
60868;DHT22;46702;48.370;10.794;2024-01-10T08:12:05;-5.50;99.90
60868;DHT22;46702;48.370;10.794;2024-01-10T08:14:31;-5.40;99.90
60868;DHT22;46702;48.370;10.794;2024-01-10T08:16:56;-5.40;99.90
60868;DHT22;46702;48.370;10.794;2024-01-10T08:19:29;-5.40;99.90
60868;DHT22;46702;48.370;10.794;2024-01-10T08:21:58;-5.40;99.90
60868;DHT22;46702;48.370;10.794;2024-01-10T08:24:23;-5.30;99.90
60868;DHT22;46702;48.370;10.794;2024-01-10T08:26:49;-5.30;99.90
60868;DHT22;46702;48.370;10.794;2024-01-10T08:29:17;-5.30;99.90
60868;DHT22;46702;48.370;10.794;2024-01-10T08:31:44;-5.20;99.90
60868;DHT22;46702;48.370;10.794;2024-01-10T08:34:10;-5.20;99.90
60868;DHT22;46702;48.370;10.794;2024-01-10T08:36:35;-5.20;99.90
60868;DHT22;46702;48.370;10.794;2024-01-10T08:39:01;-5.10;99.90
60868;DHT22;46702;48.370;10.794;2024-01-10T08:41:28;-5.10;99.90
60868;DHT22;46702;48.370;10.794;2024-01-10T08:43:54;-5.10;99.90
60868;DHT22;46702;48.370;10.794;2024-01-10T08:46:20;-5.00;99.90
60868;DHT22;46702;48.370;10.794;2024-01-10T08:48:46;-5.10;99.90
60868;DHT22;46702;48.370;10.794;2024-01-10T08:51:13;-5.10;99.90
60868;DHT22;46702;48.370;10.794;2024-01-10T08:53:41;-5.00;99.90
60868;DHT22;46702;48.370;10.794;2024-01-10T08:56:07;-5.10;99.90
60868;DHT22;46702;48.370;10.794;2024-01-10T08:58:33;-5.10;99.90
60868;DHT22;46702;48.370;10.794;2024-01-10T09:00:59;-5.00;99.90
60868;DHT22;46702;48.370;10.794;2024-01-10T09:03:24;-5.00;99.90
60868;DHT22;46702;48.370;10.794;2024-01-10T09:05:50;-5.00;99.90
60868;DHT22;46702;48.370;10.794;2024-01-10T09:08:16;-4.90;99.90
60868;DHT22;46702;48.370;10.794;2024-01-10T09:10:42;-4.80;99.90
60868;DHT22;46702;48.370;10.794;2024-01-10T09:13:08;-4.70;99.90
60868;DHT22;46702;48.370;10.794;2024-01-10T09:15:34;-4.70;99.90
60868;DHT22;46702;48.370;10.794;2024-01-10T09:18:00;-4.60;99.90
60868;DHT22;46702;48.370;10.794;2024-01-10T09:20:25;-4.50;99.90
60868;DHT22;46702;48.370;10.794;2024-01-10T09:22:51;-4.40;99.90
60868;DHT22;46702;48.370;10.794;2024-01-10T09:25:17;-4.50;99.90
60868;DHT22;46702;48.370;10.794;2024-01-10T09:27:42;-4.40;99.90
60868;DHT22;46702;48.370;10.794;2024-01-10T09:30:09;-4.40;99.90
60868;DHT22;46702;48.370;10.794;2024-01-10T09:32:36;-4.30;99.90
60868;DHT22;46702;48.370;10.794;2024-01-10T09:35:02;-4.30;99.90
60868;DHT22;46702;48.370;10.794;2024-01-10T09:37:27;-4.20;99.90
60868;DHT22;46702;48.370;10.794;2024-01-10T09:39:53;-4.20;99.90
60868;DHT22;46702;48.370;10.794;2024-01-10T09:42:19;-4.20;99.90
60868;DHT22;46702;48.370;10.794;2024-01-10T09:44:51;-4.20;99.90
60868;DHT22;46702;48.370;10.794;2024-01-10T09:47:19;-4.10;99.90
60868;DHT22;46702;48.370;10.794;2024-01-10T09:49:46;-4.10;99.90
60868;DHT22;46702;48.370;10.794;2024-01-10T09:52:19;-4.10;99.90
60868;DHT22;46702;48.370;10.794;2024-01-10T09:54:46;-4.00;99.90
60868;DHT22;46702;48.370;10.794;2024-01-10T09:57:13;-3.90;99.90
60868;DHT22;46702;48.370;10.794;2024-01-10T09:59:38;-3.80;99.90
60868;DHT22;46702;48.370;10.794;2024-01-10T10:02:04;-3.80;99.90
60868;DHT22;46702;48.370;10.794;2024-01-10T10:04:30;-3.80;99.90
60868;DHT22;46702;48.370;10.794;2024-01-10T10:07:00;-3.80;99.90
60868;DHT22;46702;48.370;10.794;2024-01-10T10:09:26;-3.70;99.90
60868;DHT22;46702;48.370;10.794;2024-01-10T10:11:57;-3.70;99.90
60868;DHT22;46702;48.370;10.794;2024-01-10T10:14:28;-3.70;99.90
60868;DHT22;46702;48.370;10.794;2024-01-10T10:16:54;-3.60;99.90
60868;DHT22;46702;48.370;10.794;2024-01-10T10:19:24;-3.50;99.90
60868;DHT22;46702;48.370;10.794;2024-01-10T10:21:50;-3.60;99.90
60868;DHT22;46702;48.370;10.794;2024-01-10T10:24:16;-3.50;99.90
60868;DHT22;46702;48.370;10.794;2024-01-10T10:26:42;-3.50;99.90
60868;DHT22;46702;48.370;10.794;2024-01-10T10:29:09;-3.40;99.90
60868;DHT22;46702;48.370;10.794;2024-01-10T10:31:35;-3.40;99.90
60868;DHT22;46702;48.370;10.794;2024-01-10T10:34:01;-3.40;99.90
60868;DHT22;46702;48.370;10.794;2024-01-10T10:36:29;-3.40;99.90
60868;DHT22;46702;48.370;10.794;2024-01-10T10:39:00;-3.30;99.90
60868;DHT22;46702;48.370;10.794;2024-01-10T10:41:29;-3.20;99.90
60868;DHT22;46702;48.370;10.794;2024-01-10T10:43:56;-3.30;99.90
60868;DHT22;46702;48.370;10.794;2024-01-10T10:46:23;-3.20;99.90
60868;DHT22;46702;48.370;10.794;2024-01-10T10:48:51;-3.10;99.90
60868;DHT22;46702;48.370;10.794;2024-01-10T10:51:29;-3.10;99.90
60868;DHT22;46702;48.370;10.794;2024-01-10T10:53:59;-3.10;99.90
60868;DHT22;46702;48.370;10.794;2024-01-10T10:56:33;-3.00;99.90
60868;DHT22;46702;48.370;10.794;2024-01-10T10:59:02;-3.00;99.90
60868;DHT22;46702;48.370;10.794;2024-01-10T11:01:29;-2.90;99.90
60868;DHT22;46702;48.370;10.794;2024-01-10T11:03:57;-2.90;99.90
60868;DHT22;46702;48.370;10.794;2024-01-10T11:06:24;-2.80;99.90
60868;DHT22;46702;48.370;10.794;2024-01-10T11:08:52;-2.70;99.90
60868;DHT22;46702;48.370;10.794;2024-01-10T11:14:50;-2.60;99.90
60868;DHT22;46702;48.370;10.794;2024-01-10T11:20:21;-2.60;99.90
60868;DHT22;46702;48.370;10.794;2024-01-10T11:25:52;-2.70;99.90
60868;DHT22;46702;48.370;10.794;2024-01-10T11:28:17;-2.80;99.90
60868;DHT22;46702;48.370;10.794;2024-01-10T11:30:51;-2.70;99.90
60868;DHT22;46702;48.370;10.794;2024-01-10T11:33:25;-2.70;99.90
60868;DHT22;46702;48.370;10.794;2024-01-10T11:41:43;-2.60;99.90
60868;DHT22;46702;48.370;10.794;2024-01-10T11:46:52;-2.40;99.90
60868;DHT22;46702;48.370;10.794;2024-01-10T11:49:19;-2.40;99.90
60868;DHT22;46702;48.370;10.794;2024-01-10T11:51:47;-2.40;99.90
60868;DHT22;46702;48.370;10.794;2024-01-10T11:54:38;-2.50;99.90
60868;DHT22;46702;48.370;10.794;2024-01-10T11:57:28;-2.60;99.90
60868;DHT22;46702;48.370;10.794;2024-01-10T11:59:55;-2.60;99.90
60868;DHT22;46702;48.370;10.794;2024-01-10T12:02:22;-2.60;99.90
60868;DHT22;46702;48.370;10.794;2024-01-10T12:04:52;-2.60;99.90
60868;DHT22;46702;48.370;10.794;2024-01-10T12:07:18;-2.50;99.90
60868;DHT22;46702;48.370;10.794;2024-01-10T12:09:45;-2.50;99.90
60868;DHT22;46702;48.370;10.794;2024-01-10T12:12:12;-2.50;99.90
60868;DHT22;46702;48.370;10.794;2024-01-10T12:14:39;-2.50;99.90
60868;DHT22;46702;48.370;10.794;2024-01-10T12:17:06;-2.50;99.90
60868;DHT22;46702;48.370;10.794;2024-01-10T12:19:34;-2.40;99.90
60868;DHT22;46702;48.370;10.794;2024-01-10T12:22:01;-2.40;99.90
60868;DHT22;46702;48.370;10.794;2024-01-10T12:24:30;-2.50;99.90
60868;DHT22;46702;48.370;10.794;2024-01-10T12:26:56;-2.50;99.90
60868;DHT22;46702;48.370;10.794;2024-01-10T12:29:22;-2.40;99.90
60868;DHT22;46702;48.370;10.794;2024-01-10T12:31:50;-2.40;99.90
60868;DHT22;46702;48.370;10.794;2024-01-10T12:34:16;-2.30;99.90
60868;DHT22;46702;48.370;10.794;2024-01-10T12:36:42;-2.30;99.90
60868;DHT22;46702;48.370;10.794;2024-01-10T12:39:09;-2.30;99.90
60868;DHT22;46702;48.370;10.794;2024-01-10T12:41:35;-2.30;99.90
60868;DHT22;46702;48.370;10.794;2024-01-10T12:44:02;-2.30;99.90
60868;DHT22;46702;48.370;10.794;2024-01-10T12:46:30;-2.20;99.90
60868;DHT22;46702;48.370;10.794;2024-01-10T12:49:06;-2.30;99.90
60868;DHT22;46702;48.370;10.794;2024-01-10T12:51:33;-2.30;99.90
60868;DHT22;46702;48.370;10.794;2024-01-10T12:54:02;-2.20;99.90
60868;DHT22;46702;48.370;10.794;2024-01-10T12:56:34;-2.30;99.90
60868;DHT22;46702;48.370;10.794;2024-01-10T12:59:00;-2.20;99.90
60868;DHT22;46702;48.370;10.794;2024-01-10T13:01:26;-2.20;99.90
60868;DHT22;46702;48.370;10.794;2024-01-10T13:03:52;-2.20;99.90
60868;DHT22;46702;48.370;10.794;2024-01-10T13:06:18;-2.10;99.90
60868;DHT22;46702;48.370;10.794;2024-01-10T13:08:48;-2.20;99.90
60868;DHT22;46702;48.370;10.794;2024-01-10T13:11:14;-2.00;99.90
60868;DHT22;46702;48.370;10.794;2024-01-10T13:13:41;-2.00;99.90
60868;DHT22;46702;48.370;10.794;2024-01-10T13:16:08;-2.10;99.90
60868;DHT22;46702;48.370;10.794;2024-01-10T13:18:37;-2.10;99.90
60868;DHT22;46702;48.370;10.794;2024-01-10T13:21:03;-2.10;99.90
60868;DHT22;46702;48.370;10.794;2024-01-10T13:23:29;-2.10;99.90
60868;DHT22;46702;48.370;10.794;2024-01-10T13:25:54;-2.10;99.90
60868;DHT22;46702;48.370;10.794;2024-01-10T13:28:20;-2.00;99.90
60868;DHT22;46702;48.370;10.794;2024-01-10T13:30:46;-2.00;99.90
60868;DHT22;46702;48.370;10.794;2024-01-10T13:33:13;-2.00;99.90
60868;DHT22;46702;48.370;10.794;2024-01-10T13:35:39;-2.00;99.90
60868;DHT22;46702;48.370;10.794;2024-01-10T13:38:05;-2.00;99.90
60868;DHT22;46702;48.370;10.794;2024-01-10T13:40:31;-2.00;99.90
60868;DHT22;46702;48.370;10.794;2024-01-10T13:42:59;-2.00;99.90
60868;DHT22;46702;48.370;10.794;2024-01-10T13:45:28;-2.00;99.90
60868;DHT22;46702;48.370;10.794;2024-01-10T13:47:53;-2.00;99.90
60868;DHT22;46702;48.370;10.794;2024-01-10T13:50:19;-2.00;99.90
60868;DHT22;46702;48.370;10.794;2024-01-10T13:52:45;-2.00;99.90
60868;DHT22;46702;48.370;10.794;2024-01-10T13:55:11;-2.00;99.90
60868;DHT22;46702;48.370;10.794;2024-01-10T13:57:37;-2.00;99.90
60868;DHT22;46702;48.370;10.794;2024-01-10T14:00:03;-1.90;99.90
60868;DHT22;46702;48.370;10.794;2024-01-10T14:02:29;-2.00;99.90
60868;DHT22;46702;48.370;10.794;2024-01-10T14:04:55;-2.00;99.90
60868;DHT22;46702;48.370;10.794;2024-01-10T14:07:23;-2.00;99.90
60868;DHT22;46702;48.370;10.794;2024-01-10T14:09:50;-2.00;99.90
60868;DHT22;46702;48.370;10.794;2024-01-10T14:12:15;-2.00;99.90
60868;DHT22;46702;48.370;10.794;2024-01-10T14:14:41;-2.00;99.90
60868;DHT22;46702;48.370;10.794;2024-01-10T14:17:07;-2.00;99.90
60868;DHT22;46702;48.370;10.794;2024-01-10T14:19:32;-2.10;99.90
60868;DHT22;46702;48.370;10.794;2024-01-10T14:21:58;-2.10;99.90
60868;DHT22;46702;48.370;10.794;2024-01-10T14:24:24;-2.10;99.90
60868;DHT22;46702;48.370;10.794;2024-01-10T14:26:51;-2.10;99.90
60868;DHT22;46702;48.370;10.794;2024-01-10T14:29:16;-2.10;99.90
60868;DHT22;46702;48.370;10.794;2024-01-10T14:31:42;-2.10;99.90
60868;DHT22;46702;48.370;10.794;2024-01-10T14:34:08;-2.10;99.90
60868;DHT22;46702;48.370;10.794;2024-01-10T14:36:36;-2.20;99.90
60868;DHT22;46702;48.370;10.794;2024-01-10T14:39:05;-2.10;99.90
60868;DHT22;46702;48.370;10.794;2024-01-10T14:41:33;-2.00;99.90
60868;DHT22;46702;48.370;10.794;2024-01-10T14:44:00;-2.00;99.90
60868;DHT22;46702;48.370;10.794;2024-01-10T14:46:25;-2.00;99.90
60868;DHT22;46702;48.370;10.794;2024-01-10T14:48:53;-2.10;99.90
60868;DHT22;46702;48.370;10.794;2024-01-10T14:51:20;-2.10;99.90
60868;DHT22;46702;48.370;10.794;2024-01-10T14:53:45;-2.10;99.90
60868;DHT22;46702;48.370;10.794;2024-01-10T14:56:11;-2.10;99.90
60868;DHT22;46702;48.370;10.794;2024-01-10T14:58:40;-2.20;99.90
60868;DHT22;46702;48.370;10.794;2024-01-10T15:01:09;-2.20;99.90
60868;DHT22;46702;48.370;10.794;2024-01-10T15:03:35;-2.30;99.90
60868;DHT22;46702;48.370;10.794;2024-01-10T15:06:03;-2.20;99.90
60868;DHT22;46702;48.370;10.794;2024-01-10T15:08:29;-2.30;99.90
60868;DHT22;46702;48.370;10.794;2024-01-10T15:10:55;-2.30;99.90
60868;DHT22;46702;48.370;10.794;2024-01-10T15:13:21;-2.30;99.90
60868;DHT22;46702;48.370;10.794;2024-01-10T15:15:47;-2.30;99.90
60868;DHT22;46702;48.370;10.794;2024-01-10T15:18:13;-2.30;99.90
60868;DHT22;46702;48.370;10.794;2024-01-10T15:20:40;-2.30;99.90
60868;DHT22;46702;48.370;10.794;2024-01-10T15:23:06;-2.40;99.90
60868;DHT22;46702;48.370;10.794;2024-01-10T15:25:31;-2.40;99.90
60868;DHT22;46702;48.370;10.794;2024-01-10T15:27:57;-2.40;99.90